Terminal Aerodrome Forecast
Issued by NWS

Home | Current Version | Previous Version | Text Only | Print | Product List | Glossary On
Versions: 1 2 3 4 5 6 7 8 9 10 11 12 13 14 15 16 17 18 19 20 21 22 23 24 25 26 27 28 29 30 31
000
FTUS43 KDTX 310500
TAFYIP
TAF
KYIP 310526Z 3106/0106 19014KT P6SM SCT025 BKN080
      TEMPO 3106/3109 5SM TSRA BR BKN025CB OVC035
     FM310900 21012KT 4SM BR BKN018 OVC028
     FM311300 23010KT P6SM BKN028
     FM311900 21006KT P6SM SCT040 BKN080
     FM010000 20005KT P6SM SCT080=

USA.gov is the U.S. government's official web portal to all federal, state and local government web resources and services.